This is the latest recevied weather packets stored in our database for station/object WB6ANP. If no packets are shown the sender has not sent any weather packets the latest 10 day(s).
| Time | Temp. | Humidity | Pressure | Rain* | Wind** | Luminosity | Snow |
|---|---|---|---|---|---|---|---|
| 1777811444 | 13.33° C | 74% | 1020.9 hPa | 0 mm | - | 75 W/m² | - |
| 1777811140 | 12.78° C | 74% | 1021 hPa | 0 mm | - | 65 W/m² | - |
| 1777810838 | 12.78° C | 75% | 1020.7 hPa | 0 mm | - | 54 W/m² | - |
| 1777810534 | 12.22° C | 78% | 1020.7 hPa | 0 mm | - | 43 W/m² | - |
| 1777810231 | 11.67° C | 78% | 1020.7 hPa | 0 mm | - | 33 W/m² | - |
| 1777809927 | 11.67° C | 79% | 1020.4 hPa | 0 mm | - | 26 W/m² | - |
| 1777809626 | 11.11° C | 82% | 1020.4 hPa | 0 mm | - | 19 W/m² | - |
| 1777809323 | 11.11° C | 81% | 1020.2 hPa | 0 mm | - | 14 W/m² | - |
| 1777809020 | 10.56° C | 83% | 1020.2 hPa | 0 mm | - | 9 W/m² | - |
| 1777808717 | 11.11° C | 82% | 1020 hPa | 0 mm | - | 6 W/m² | - |
| 1777808414 | 11.11° C | 80% | 1020 hPa | 0 mm | - | 3 W/m² | - |
| 1777808112 | 11.11° C | 80% | 1020.1 hPa | 0 mm | - | 2 W/m² | - |
| 1777807810 | 11.11° C | 81% | 1020.2 hPa | 0 mm | - | 1 W/m² | - |
| 1777807508 | 11.11° C | 81% | 1019.9 hPa | 0 mm | - | 0 W/m² | - |
| 1777807203 | 11.11° C | 82% | 1020 hPa | 0 mm | - | 0 W/m² | - |
| 1777806900 | 11.67° C | 80% | 1020 hPa | 0 mm | - | 0 W/m² | - |
| 1777806596 | 11.67° C | 78% | 1020.1 hPa | 0 mm | - | 0 W/m² | - |
| 1777806293 | 11.67° C | 78% | 1020.1 hPa | 0 mm | - | 0 W/m² | - |
| 1777805989 | 11.67° C | 78% | 1019.9 hPa | 0 mm | - | 0 W/m² | - |
| 1777805686 | 11.67° C | 78% | 1019.9 hPa | 0 mm | - | 0 W/m² | - |
| 1777805384 | 11.67° C | 77% | 1019.8 hPa | 0 mm | - | 0 W/m² | - |
| 1777805082 | 11.67° C | 77% | 1019.9 hPa | 0 mm | - | 0 W/m² | - |
| 1777804779 | 11.67° C | 77% | 1019.9 hPa | 0 mm | - | 0 W/m² | - |
| 1777804477 | 11.67° C | 78% | 1019.7 hPa | 0 mm | - | 0 W/m² | - |
| 1777804174 | 11.67° C | 78% | 1019.7 hPa | 0 mm | - | 0 W/m² | - |
* Rain latest hour (hover to see other rain measurements)
** Current wind speed in m/s (hover to see current wind gust speed)